createdAt,value
2016-03-21T00:00:34.020Z,1011.56
2016-03-21T00:01:34.069Z,1011.55
2016-03-21T00:02:34.119Z,1011.57
2016-03-21T00:03:34.153Z,1011.56
2016-03-21T00:04:34.219Z,1011.51
2016-03-21T00:05:34.267Z,1011.5
2016-03-21T00:06:34.316Z,1011.5
2016-03-21T00:07:34.367Z,1011.49
2016-03-21T00:08:34.416Z,1011.54
2016-03-21T00:09:34.466Z,1011.56
2016-03-21T00:10:34.516Z,1011.49
2016-03-21T00:11:34.580Z,1011.51
2016-03-21T00:12:34.615Z,1011.5
2016-03-21T00:13:34.664Z,1011.51
2016-03-21T00:14:34.729Z,1011.49
2016-03-21T00:15:34.763Z,1011.54
2016-03-21T00:16:34.829Z,1011.52
2016-03-21T00:17:34.878Z,1011.47
2016-03-21T00:18:34.912Z,1011.48
2016-03-21T00:19:34.977Z,1011.47
2016-03-21T00:20:35.027Z,1011.47
2016-03-21T00:21:35.077Z,1011.51
2016-03-21T00:22:35.126Z,1011.54
2016-03-21T00:23:35.176Z,1011.52
2016-03-21T00:24:35.225Z,1011.5
2016-03-21T00:25:35.275Z,1011.52
2016-03-21T00:26:35.339Z,1011.51
2016-03-21T00:27:35.374Z,1011.48
2016-03-21T00:28:35.439Z,1011.46
2016-03-21T00:29:35.473Z,1011.47
2016-03-21T00:30:35.538Z,1011.53
2016-03-21T00:31:35.587Z,1011.54
2016-03-21T00:32:35.637Z,1011.5
2016-03-21T00:33:35.687Z,1011.55
2016-03-21T00:34:35.736Z,1011.57
2016-03-21T00:35:35.786Z,1011.55
2016-03-21T00:36:35.835Z,1011.56
2016-03-21T00:37:35.885Z,1011.53
2016-03-21T00:38:35.935Z,1011.51
2016-03-21T00:39:35.984Z,1011.47
2016-03-21T00:40:36.050Z,1011.5
2016-03-21T00:41:36.083Z,1011.52
2016-03-21T00:42:36.149Z,1011.5
2016-03-21T00:43:36.182Z,1011.44
2016-03-21T00:44:36.247Z,1011.47
2016-03-21T00:45:36.297Z,1011.46
2016-03-21T00:46:36.346Z,1011.5
2016-03-21T00:47:36.380Z,1011.48
2016-03-21T00:48:36.446Z,1011.46
2016-03-21T00:49:36.496Z,1011.48
2016-03-21T00:50:36.545Z,1011.47
2016-03-21T00:51:36.610Z,1011.46
2016-03-21T00:52:36.643Z,1011.49
2016-03-21T00:53:36.693Z,1011.45
2016-03-21T00:54:36.743Z,1011.44
2016-03-21T00:55:36.793Z,1011.44
2016-03-21T00:56:36.859Z,1011.41
2016-03-21T00:57:36.907Z,1011.41
2016-03-21T00:58:36.957Z,1011.44
2016-03-21T00:59:37.007Z,1011.43
2016-03-21T01:00:37.072Z,1011.41
2016-03-21T01:01:37.090Z,1011.43
2016-03-21T01:02:37.155Z,1011.39
2016-03-21T01:03:37.205Z,1011.41
2016-03-21T01:04:37.255Z,1011.42
2016-03-21T01:05:37.304Z,1011.39
2016-03-21T01:06:37.353Z,1011.42
2016-03-21T01:07:37.403Z,1011.37
2016-03-21T01:08:37.469Z,1011.39
2016-03-21T01:09:37.502Z,1011.38
2016-03-21T01:10:37.567Z,1011.35
2016-03-21T01:11:37.602Z,1011.36
2016-03-21T01:12:37.651Z,1011.35
2016-03-21T01:13:37.716Z,1011.34
2016-03-21T01:14:37.766Z,1011.34
2016-03-21T01:15:37.815Z,1011.28
2016-03-21T01:16:37.865Z,1011.28
2016-03-21T01:17:37.915Z,1011.25
2016-03-21T01:18:37.964Z,1011.23
2016-03-21T01:19:38.013Z,1011.22
2016-03-21T01:20:38.079Z,1011.17
2016-03-21T01:21:38.129Z,1011.16
2016-03-21T01:22:38.163Z,1011.17
2016-03-21T01:23:38.212Z,1011.13
2016-03-21T01:24:38.276Z,1011.17
2016-03-21T01:25:38.312Z,1011.17
2016-03-21T01:26:38.376Z,1011.16
2016-03-21T01:27:38.410Z,1011.16
2016-03-21T01:28:38.476Z,1011.17
2016-03-21T01:29:38.525Z,1011.15
2016-03-21T01:30:38.575Z,1011.15
2016-03-21T01:31:38.640Z,1011.19
2016-03-21T01:32:38.674Z,1011.19
2016-03-21T01:33:38.723Z,1011.16
2016-03-21T01:34:38.773Z,1011.18
2016-03-21T01:35:38.823Z,1011.17
2016-03-21T01:36:38.872Z,1011.22
2016-03-21T01:37:38.922Z,1011.18
2016-03-21T01:38:38.972Z,1011.2
2016-03-21T01:39:39.036Z,1011.19
2016-03-21T01:40:39.070Z,1011.14
2016-03-21T01:41:39.136Z,1011.18
2016-03-21T01:42:39.185Z,1011.14
2016-03-21T01:43:39.235Z,1011.1
2016-03-21T01:44:39.284Z,1011.15
2016-03-21T01:45:39.333Z,1011.14
2016-03-21T01:46:39.383Z,1011.17
2016-03-21T01:47:39.433Z,1011.13
2016-03-21T01:48:39.482Z,1011.15
2016-03-21T01:49:39.532Z,1011.16
2016-03-21T01:50:39.582Z,1011.15
2016-03-21T01:51:39.632Z,1011.17
2016-03-21T01:52:39.681Z,1011.16
2016-03-21T01:53:39.747Z,1011.22
2016-03-21T01:54:39.780Z,1011.22
2016-03-21T01:55:39.846Z,1011.2
2016-03-21T01:56:39.896Z,1011.23
2016-03-21T01:57:39.944Z,1011.22
2016-03-21T01:58:39.994Z,1011.23
2016-03-21T01:59:40.044Z,1011.18
2016-03-21T02:00:40.093Z,1011.22
2016-03-21T02:01:40.142Z,1011.22
2016-03-21T02:02:40.193Z,1011.23
2016-03-21T02:03:40.242Z,1011.27
2016-03-21T02:04:40.292Z,1011.23
2016-03-21T02:05:40.340Z,1011.2
2016-03-21T02:06:40.406Z,1011.25
2016-03-21T02:07:40.456Z,1011.2
2016-03-21T02:08:40.505Z,1011.22
2016-03-21T02:09:40.556Z,1011.2
2016-03-21T02:10:40.604Z,1011.21
2016-03-21T02:11:40.653Z,1011.18
2016-03-21T02:12:40.703Z,1011.15
2016-03-21T02:13:40.753Z,1011.18
2016-03-21T02:14:40.803Z,1011.21
2016-03-21T02:15:40.853Z,1011.2
2016-03-21T02:16:40.903Z,1011.15
2016-03-21T02:17:40.952Z,1011.16
2016-03-21T02:18:41.000Z,1011.19
2016-03-21T02:19:41.051Z,1011.17
2016-03-21T02:20:41.100Z,1011.19
2016-03-21T02:21:41.166Z,1011.18
2016-03-21T02:22:41.199Z,1011.21
2016-03-21T02:23:41.264Z,1011.2
2016-03-21T02:24:41.299Z,1011.16
2016-03-21T02:25:41.348Z,1011.2
2016-03-21T02:26:41.413Z,1011.14
2016-03-21T02:27:41.463Z,1011.14
2016-03-21T02:28:41.512Z,1011.15
2016-03-21T02:29:41.562Z,1011.13
2016-03-21T02:30:41.611Z,1011.17
2016-03-21T02:31:41.661Z,1011.2
2016-03-21T02:32:41.710Z,1011.22
2016-03-21T02:33:41.775Z,1011.2
2016-03-21T02:34:41.809Z,1011.22
2016-03-21T02:35:41.859Z,1011.17
2016-03-21T02:36:41.909Z,1011.18
2016-03-21T02:37:41.974Z,1011.18
2016-03-21T02:38:42.009Z,1011.16
2016-03-21T02:39:42.057Z,1011.14
2016-03-21T02:40:42.122Z,1011.14
2016-03-21T02:41:42.173Z,1011.16
2016-03-21T02:42:42.222Z,1011.16
2016-03-21T02:43:42.272Z,1011.17
2016-03-21T02:44:42.320Z,1011.16
2016-03-21T02:45:42.370Z,1011.1
2016-03-21T02:46:42.420Z,1011.1
2016-03-21T02:47:42.485Z,1011.14
2016-03-21T02:48:42.520Z,1011.1
2016-03-21T02:49:42.569Z,1011.1
2016-03-21T02:50:42.619Z,1011.08
2016-03-21T02:51:42.683Z,1011.1
2016-03-21T02:52:42.733Z,1011.09
2016-03-21T02:53:42.783Z,1011.07
2016-03-21T02:54:42.832Z,1011.12
2016-03-21T02:55:42.882Z,1011.05
2016-03-21T02:56:42.931Z,1011.07
2016-03-21T02:57:42.981Z,1011.05
2016-03-21T02:58:43.046Z,1011.06
2016-03-21T02:59:43.080Z,1011.06
2016-03-21T03:00:43.130Z,1011.04
2016-03-21T03:01:43.179Z,1011.07
2016-03-21T03:02:43.229Z,1011
2016-03-21T03:03:43.294Z,1011.01
2016-03-21T03:04:43.329Z,1010.99
2016-03-21T03:05:43.377Z,1010.99
2016-03-21T03:06:43.442Z,1010.98
2016-03-21T03:07:43.476Z,1011
2016-03-21T03:08:43.525Z,1010.96
2016-03-21T03:09:43.590Z,1010.95
2016-03-21T03:10:43.625Z,1010.99
2016-03-21T03:11:43.689Z,1010.96
2016-03-21T03:12:43.739Z,1010.97
2016-03-21T03:13:43.788Z,1010.98
2016-03-21T03:14:43.838Z,1010.96
2016-03-21T03:15:43.888Z,1010.97
2016-03-21T03:16:43.938Z,1010.98
2016-03-21T03:17:43.987Z,1010.97
2016-03-21T03:18:44.035Z,1010.96
2016-03-21T03:19:44.086Z,1010.94
2016-03-21T03:20:44.135Z,1010.99
2016-03-21T03:21:44.185Z,1010.96
2016-03-21T03:22:44.251Z,1010.99
2016-03-21T03:23:44.284Z,1010.97
2016-03-21T03:24:44.334Z,1011
2016-03-21T03:25:44.383Z,1010.99
2016-03-21T03:26:44.433Z,1011.01
2016-03-21T03:27:44.498Z,1011.05
2016-03-21T03:28:44.531Z,1011.04
2016-03-21T03:29:44.597Z,1010.97
2016-03-21T03:30:44.647Z,1010.97
2016-03-21T03:31:44.696Z,1010.97
2016-03-21T03:32:44.746Z,1010.97
2016-03-21T03:33:44.796Z,1010.98
2016-03-21T03:34:44.845Z,1010.98
2016-03-21T03:35:44.895Z,1010.96
2016-03-21T03:36:44.944Z,1010.98
2016-03-21T03:37:45.009Z,1010.98
2016-03-21T03:38:45.044Z,1011.01
2016-03-21T03:39:45.092Z,1010.99
2016-03-21T03:40:45.142Z,1011.01
2016-03-21T03:41:45.207Z,1010.99
2016-03-21T03:42:45.258Z,1011.04
2016-03-21T03:43:45.307Z,1010.98
2016-03-21T03:44:45.356Z,1011.05
2016-03-21T03:45:45.406Z,1011.03
2016-03-21T03:46:45.455Z,1011
2016-03-21T03:47:45.505Z,1011.01
2016-03-21T03:48:45.555Z,1011.05
2016-03-21T03:49:45.605Z,1011.08
2016-03-21T03:50:45.654Z,1011.11
2016-03-21T03:51:45.703Z,1011.07
2016-03-21T03:52:45.752Z,1011.05
2016-03-21T03:53:45.802Z,1011.14
2016-03-21T03:54:45.851Z,1011.11
2016-03-21T03:55:45.918Z,1011.1
2016-03-21T03:56:45.951Z,1011.1
2016-03-21T03:57:46.001Z,1011.12
2016-03-21T03:58:46.065Z,1011.12
2016-03-21T03:59:46.115Z,1011.13
2016-03-21T04:00:46.165Z,1011.15
2016-03-21T04:01:46.214Z,1011.14
2016-03-21T04:02:46.264Z,1011.14
2016-03-21T04:03:46.314Z,1011.13
2016-03-21T04:04:46.364Z,1011.13
2016-03-21T04:05:46.412Z,1011.15
2016-03-21T04:06:46.462Z,1011.1
2016-03-21T04:07:46.512Z,1011.12
2016-03-21T04:08:46.561Z,1011.15
2016-03-21T04:09:46.611Z,1011.16
2016-03-21T04:10:46.660Z,1011.22
2016-03-21T04:11:46.726Z,1011.18
2016-03-21T04:12:46.760Z,1011.2
2016-03-21T04:13:46.825Z,1011.18
2016-03-21T04:14:46.874Z,1011.15
2016-03-21T04:15:46.924Z,1011.19
2016-03-21T04:16:46.974Z,1011.17
2016-03-21T04:17:47.023Z,1011.17
2016-03-21T04:18:47.073Z,1011.13
2016-03-21T04:19:47.122Z,1011.11
2016-03-21T04:20:47.171Z,1011.12
2016-03-21T04:21:47.221Z,1011.11
2016-03-21T04:22:47.271Z,1011.05
2016-03-21T04:23:47.321Z,1011.01
2016-03-21T04:24:47.385Z,1011.03
2016-03-21T04:25:47.466Z,1011.01
2016-03-21T04:26:47.469Z,1011
2016-03-21T04:27:47.534Z,1011.14
2016-03-21T04:28:47.584Z,1011.14
2016-03-21T04:29:47.634Z,1011.2
2016-03-21T04:30:47.698Z,1011.2
2016-03-21T04:31:47.717Z,1011.19
2016-03-21T04:32:47.781Z,1011.2
2016-03-21T04:33:47.832Z,1011.21
2016-03-21T04:34:47.881Z,1011.26
2016-03-21T04:35:47.931Z,1011.35
2016-03-21T04:36:47.980Z,1011.33
2016-03-21T04:37:48.030Z,1011.28
2016-03-21T04:38:48.095Z,1011.29
2016-03-21T04:39:48.128Z,1011.28
2016-03-21T04:40:48.179Z,1011.27
2016-03-21T04:41:48.228Z,1011.25
2016-03-21T04:42:48.294Z,1011.28
2016-03-21T04:43:48.327Z,1011.31
2016-03-21T04:44:48.392Z,1011.34
2016-03-21T04:45:48.442Z,1011.31
2016-03-21T04:46:48.491Z,1011.31
2016-03-21T04:47:48.541Z,1011.3
2016-03-21T04:48:48.591Z,1011.3
2016-03-21T04:49:48.641Z,1011.29
2016-03-21T04:50:48.690Z,1011.29
2016-03-21T04:51:48.755Z,1011.32
2016-03-21T04:52:48.789Z,1011.32
2016-03-21T04:53:48.854Z,1011.3
2016-03-21T04:54:48.888Z,1011.29
2016-03-21T04:55:48.937Z,1011.3
2016-03-21T04:56:49.003Z,1011.25
2016-03-21T04:57:49.052Z,1011.27
2016-03-21T04:58:49.086Z,1011.32
2016-03-21T04:59:49.151Z,1011.3
2016-03-21T05:00:49.201Z,1011.3
2016-03-21T05:01:49.251Z,1011.27
2016-03-21T05:02:49.300Z,1011.31
2016-03-21T05:03:49.351Z,1011.29
2016-03-21T05:04:49.400Z,1011.3
2016-03-21T05:05:49.448Z,1011.33
2016-03-21T05:06:49.515Z,1011.3
2016-03-21T05:07:49.548Z,1011.29
2016-03-21T05:08:49.598Z,1011.31
2016-03-21T05:09:49.647Z,1011.29
2016-03-21T05:10:49.697Z,1011.3
2016-03-21T05:11:49.747Z,1011.27
2016-03-21T05:12:49.812Z,1011.3
2016-03-21T05:13:49.861Z,1011.29
2016-03-21T05:14:49.911Z,1011.26
2016-03-21T05:15:49.960Z,1011.27
2016-03-21T05:16:50.010Z,1011.28
2016-03-21T05:17:50.059Z,1011.26
2016-03-21T05:18:50.109Z,1011.26
2016-03-21T05:19:50.158Z,1011.27
2016-03-21T05:20:50.207Z,1011.27
2016-03-21T05:21:50.257Z,1011.28
2016-03-21T05:22:50.307Z,1011.29
2016-03-21T05:23:50.357Z,1011.29
2016-03-21T05:24:50.406Z,1011.31
2016-03-21T05:25:50.472Z,1011.32
2016-03-21T05:26:50.505Z,1011.31
2016-03-21T05:27:50.554Z,1011.33
2016-03-21T05:28:50.620Z,1011.32
2016-03-21T05:29:50.670Z,1011.34
2016-03-21T05:30:50.720Z,1011.35
2016-03-21T05:31:50.768Z,1011.34
2016-03-21T05:32:50.818Z,1011.34
2016-03-21T05:33:50.868Z,1011.3
2016-03-21T05:34:50.918Z,1011.34
2016-03-21T05:35:50.967Z,1011.37
2016-03-21T05:36:51.017Z,1011.36
2016-03-21T05:37:51.067Z,1011.4
2016-03-21T05:38:51.116Z,1011.39
2016-03-21T05:39:51.181Z,1011.34
2016-03-21T05:40:51.215Z,1011.38
2016-03-21T05:41:51.264Z,1011.38
2016-03-21T05:42:51.330Z,1011.36
2016-03-21T05:43:51.379Z,1011.37
2016-03-21T05:44:51.429Z,1011.36
2016-03-21T05:45:51.478Z,1011.38
2016-03-21T05:46:51.528Z,1011.36
2016-03-21T05:47:51.577Z,1011.36
2016-03-21T05:48:51.628Z,1011.4
2016-03-21T05:49:51.677Z,1011.4
2016-03-21T05:50:51.726Z,1011.37
2016-03-21T05:51:51.777Z,1011.41
2016-03-21T05:52:51.825Z,1011.42
2016-03-21T05:53:51.875Z,1011.4
2016-03-21T05:54:51.924Z,1011.44
2016-03-21T05:55:51.974Z,1011.41
2016-03-21T05:56:52.024Z,1011.43
2016-03-21T05:57:52.073Z,1011.45
2016-03-21T05:58:52.123Z,1011.48
2016-03-21T05:59:52.173Z,1011.5
2016-03-21T06:00:52.237Z,1011.5
2016-03-21T06:01:52.271Z,1011.52
2016-03-21T06:02:52.336Z,1011.48
2016-03-21T06:03:52.387Z,1011.55
2016-03-21T06:04:52.436Z,1011.53
2016-03-21T06:05:52.485Z,1011.56
2016-03-21T06:06:52.534Z,1011.52
2016-03-21T06:07:52.584Z,1011.53
2016-03-21T06:08:52.650Z,1011.55
2016-03-21T06:09:52.699Z,1011.54
2016-03-21T06:10:52.734Z,1011.54
2016-03-21T06:11:52.783Z,1011.59
2016-03-21T06:12:52.848Z,1011.54
2016-03-21T06:13:52.881Z,1011.55
2016-03-21T06:14:52.947Z,1011.54
2016-03-21T06:15:52.997Z,1011.51
2016-03-21T06:16:53.046Z,1011.57
2016-03-21T06:17:53.096Z,1011.59
2016-03-21T06:18:53.145Z,1011.56
2016-03-21T06:19:53.194Z,1011.61
2016-03-21T06:20:53.244Z,1011.61
2016-03-21T06:21:53.294Z,1011.61
2016-03-21T06:22:53.344Z,1011.62
2016-03-21T06:23:53.393Z,1011.64
2016-03-21T06:24:53.443Z,1011.62
2016-03-21T06:25:53.493Z,1011.62
2016-03-21T06:26:53.542Z,1011.64
2016-03-21T06:27:53.607Z,1011.61
2016-03-21T06:28:53.656Z,1011.65
2016-03-21T06:29:53.707Z,1011.67
2016-03-21T06:30:53.756Z,1011.66
2016-03-21T06:31:53.805Z,1011.7
2016-03-21T06:32:53.855Z,1011.69
2016-03-21T06:33:53.904Z,1011.65
2016-03-21T06:34:53.954Z,1011.65
2016-03-21T06:35:54.003Z,1011.66
2016-03-21T06:36:54.053Z,1011.71
2016-03-21T06:37:54.103Z,1011.74
2016-03-21T06:38:54.153Z,1011.71
2016-03-21T06:39:54.201Z,1011.72
2016-03-21T06:40:54.267Z,1011.75
2016-03-21T06:41:54.317Z,1011.74
2016-03-21T06:42:54.366Z,1011.75
2016-03-21T06:43:54.416Z,1011.76
2016-03-21T06:44:54.465Z,1011.73
2016-03-21T06:45:54.499Z,1011.74
2016-03-21T06:46:54.564Z,1011.71
2016-03-21T06:47:54.614Z,1011.74
2016-03-21T06:48:54.648Z,1011.75
2016-03-21T06:49:54.713Z,1011.73
2016-03-21T06:50:54.763Z,1011.71
2016-03-21T06:51:54.813Z,1011.69
2016-03-21T06:52:54.862Z,1011.7
2016-03-21T06:53:54.911Z,1011.65
2016-03-21T06:54:54.961Z,1011.73
2016-03-21T06:55:55.011Z,1011.67
2016-03-21T06:56:55.060Z,1011.66
2016-03-21T06:57:55.109Z,1011.62
2016-03-21T06:58:55.175Z,1011.65
2016-03-21T06:59:55.209Z,1011.66
2016-03-21T07:00:55.274Z,1011.68
2016-03-21T07:01:55.323Z,1011.7
2016-03-21T07:02:55.357Z,1011.71
2016-03-21T07:03:55.407Z,1011.69
2016-03-21T07:04:55.472Z,1011.71
2016-03-21T07:05:55.522Z,1011.71
2016-03-21T07:06:55.579Z,1011.74
2016-03-21T07:07:55.612Z,1011.75
2016-03-21T07:08:55.678Z,1011.74
2016-03-21T07:09:55.728Z,1011.71
2016-03-21T07:10:55.762Z,1011.74
2016-03-21T07:11:55.826Z,1011.7
2016-03-21T07:12:55.876Z,1011.76
2016-03-21T07:13:55.926Z,1011.72
2016-03-21T07:14:55.975Z,1011.68
2016-03-21T07:15:56.025Z,1011.7
2016-03-21T07:16:56.074Z,1011.66
2016-03-21T07:17:56.125Z,1011.69
2016-03-21T07:18:56.174Z,1011.69
2016-03-21T07:19:56.223Z,1011.69
2016-03-21T07:20:56.289Z,1011.7
2016-03-21T07:21:56.338Z,1011.68
2016-03-21T07:22:56.388Z,1011.66
2016-03-21T07:23:56.421Z,1011.66
2016-03-21T07:24:56.487Z,1011.67
2016-03-21T07:25:56.521Z,1011.68
2016-03-21T07:26:56.585Z,1011.66
2016-03-21T07:27:56.682Z,1011.7
2016-03-21T07:28:56.685Z,1011.69
2016-03-21T07:29:56.735Z,1011.68
2016-03-21T07:30:56.784Z,1011.74
2016-03-21T07:31:56.835Z,1011.71
2016-03-21T07:32:56.883Z,1011.69
2016-03-21T07:33:56.932Z,1011.67
2016-03-21T07:34:56.998Z,1011.72
2016-03-21T07:35:57.048Z,1011.73
2016-03-21T07:36:57.081Z,1011.69
2016-03-21T07:37:57.131Z,1011.69
2016-03-21T07:38:57.196Z,1011.69
2016-03-21T07:39:57.231Z,1011.69
2016-03-21T07:40:57.295Z,1011.71
2016-03-21T07:41:57.345Z,1011.76
2016-03-21T07:42:57.395Z,1011.76
2016-03-21T07:43:57.444Z,1011.79
2016-03-21T07:44:57.494Z,1011.79
2016-03-21T07:45:57.535Z,1011.83
2016-03-21T07:46:57.571Z,1011.84
2016-03-21T07:47:57.606Z,1011.86
2016-03-21T07:48:57.643Z,1011.86
2016-03-21T07:49:57.678Z,1011.88
2016-03-21T07:50:57.720Z,1011.89
2016-03-21T07:51:57.764Z,1011.88
2016-03-21T07:52:57.823Z,1011.93
2016-03-21T07:53:57.869Z,1011.95
2016-03-21T07:54:57.913Z,1011.97
2016-03-21T07:55:57.959Z,1011.92
2016-03-21T07:56:57.991Z,1012
2016-03-21T07:57:58.055Z,1011.96
2016-03-21T07:58:58.101Z,1011.96
2016-03-21T07:59:58.149Z,1011.98
2016-03-21T08:00:58.198Z,1012
2016-03-21T08:01:58.247Z,1012.01
2016-03-21T08:02:58.296Z,1012.02
2016-03-21T08:03:58.345Z,1011.96
2016-03-21T08:04:58.394Z,1012.03
2016-03-21T08:05:58.443Z,1012.05
2016-03-21T08:06:58.491Z,1012.05
2016-03-21T08:07:58.542Z,1012.06
2016-03-21T08:08:58.591Z,1012.09
2016-03-21T08:09:58.657Z,1012.1
2016-03-21T08:10:58.690Z,1012.08
2016-03-21T08:11:58.755Z,1012.1
2016-03-21T08:12:58.837Z,1012.08
2016-03-21T08:13:58.854Z,1012.1
2016-03-21T08:14:58.905Z,1012.02
2016-03-21T08:15:58.954Z,1012.13
2016-03-21T08:16:59.003Z,1012.11
2016-03-21T08:17:59.053Z,1012.11
2016-03-21T08:18:59.103Z,1012.12
2016-03-21T08:19:59.152Z,1012.1
2016-03-21T08:20:59.201Z,1012.08
2016-03-21T08:21:59.251Z,1012.12
2016-03-21T08:22:59.301Z,1012.16
2016-03-21T08:23:59.350Z,1012.16
2016-03-21T08:24:59.415Z,1012.13
2016-03-21T08:25:59.715Z,1012.19
2016-03-21T08:26:59.531Z,1012.18
2016-03-21T08:27:59.564Z,1012.19
2016-03-21T08:28:59.614Z,1012.18
2016-03-21T08:29:59.663Z,1012.19
2016-03-21T08:30:59.713Z,1012.17
2016-03-21T08:31:59.762Z,1012.14
2016-03-21T08:32:59.812Z,1012.18
2016-03-21T08:33:59.861Z,1012.2
2016-03-21T08:34:59.911Z,1012.18
2016-03-21T08:35:59.977Z,1012.17
2016-03-21T08:37:00.011Z,1012.17
2016-03-21T08:38:00.060Z,1012.19
2016-03-21T08:39:00.109Z,1012.19
2016-03-21T08:40:00.175Z,1012.13
2016-03-21T08:41:00.224Z,1012.19
2016-03-21T08:42:00.274Z,1012.2
2016-03-21T08:43:00.323Z,1012.17
2016-03-21T08:44:00.357Z,1012.17
2016-03-21T08:45:00.423Z,1012.23
2016-03-21T08:46:00.471Z,1012.23
2016-03-21T08:47:00.522Z,1012.22
2016-03-21T08:48:00.571Z,1012.19
2016-03-21T08:49:00.621Z,1012.2
2016-03-21T08:50:00.686Z,1012.19
2016-03-21T08:51:00.782Z,1012.17
2016-03-21T08:52:00.770Z,1012.18
2016-03-21T08:53:00.819Z,1012.18
2016-03-21T08:54:00.884Z,1012.17
2016-03-21T08:55:00.918Z,1012.19
2016-03-21T08:56:00.967Z,1012.18
2016-03-21T08:57:01.034Z,1012.18
2016-03-21T08:58:01.083Z,1012.24
2016-03-21T08:59:01.117Z,1012.24
2016-03-21T09:00:01.181Z,1012.22
2016-03-21T09:01:01.231Z,1012.26
2016-03-21T09:02:01.281Z,1012.26
2016-03-21T09:03:01.330Z,1012.28
2016-03-21T09:04:01.380Z,1012.29
2016-03-21T09:05:01.429Z,1012.23
2016-03-21T09:06:01.479Z,1012.28
2016-03-21T09:07:01.528Z,1012.26
2016-03-21T09:08:01.578Z,1012.27
2016-03-21T09:09:01.644Z,1012.3
2016-03-21T09:10:01.677Z,1012.27
2016-03-21T09:11:01.727Z,1012.33
2016-03-21T09:12:01.792Z,1012.29
2016-03-21T09:13:01.826Z,1012.32
2016-03-21T09:14:01.890Z,1012.32
2016-03-21T09:15:01.932Z,1012.3
2016-03-21T09:16:01.981Z,1012.25
2016-03-21T09:17:02.047Z,1012.23
2016-03-21T09:18:02.080Z,1012.26
2016-03-21T09:19:02.131Z,1012.29
2016-03-21T09:20:02.180Z,1012.31
2016-03-21T09:21:02.229Z,1012.31
2016-03-21T09:22:02.278Z,1012.32
2016-03-21T09:23:02.344Z,1012.37
2016-03-21T09:24:02.393Z,1012.35
2016-03-21T09:25:02.444Z,1012.39
2016-03-21T09:26:02.493Z,1012.36
2016-03-21T09:27:02.542Z,1012.37
2016-03-21T09:28:02.591Z,1012.29
2016-03-21T09:29:02.641Z,1012.35
2016-03-21T09:30:02.691Z,1012.39
2016-03-21T09:31:02.756Z,1012.38
2016-03-21T09:32:02.790Z,1012.46
2016-03-21T09:33:02.840Z,1012.43
2016-03-21T09:34:02.889Z,1012.4
2016-03-21T09:35:02.939Z,1012.4
2016-03-21T09:36:02.988Z,1012.4
2016-03-21T09:37:03.054Z,1012.39
2016-03-21T09:38:03.103Z,1012.37
2016-03-21T09:39:03.153Z,1012.41
2016-03-21T09:40:03.202Z,1012.46
2016-03-21T09:41:03.251Z,1012.45
2016-03-21T09:42:03.301Z,1012.42
2016-03-21T09:43:03.350Z,1012.42
2016-03-21T09:44:03.400Z,1012.38
2016-03-21T09:45:03.450Z,1012.4
2016-03-21T09:46:03.500Z,1012.41
2016-03-21T09:47:03.550Z,1012.45
2016-03-21T09:48:03.614Z,1012.48
2016-03-21T09:49:03.664Z,1012.46
2016-03-21T09:50:03.714Z,1012.48
2016-03-21T09:51:03.763Z,1012.52
2016-03-21T09:52:03.813Z,1012.59
2016-03-21T09:53:03.862Z,1012.54
2016-03-21T09:54:03.912Z,1012.46
2016-03-21T09:55:03.961Z,1012.45
2016-03-21T09:56:04.011Z,1012.43
2016-03-21T09:57:04.060Z,1012.47
2016-03-21T09:58:04.110Z,1012.47
2016-03-21T09:59:04.159Z,1012.48
2016-03-21T10:00:04.210Z,1012.48
2016-03-21T10:01:04.274Z,1012.5
2016-03-21T10:02:04.307Z,1012.48
2016-03-21T10:03:04.357Z,1012.51
2016-03-21T10:04:04.423Z,1012.52
2016-03-21T10:05:04.473Z,1012.51
2016-03-21T10:06:04.521Z,1012.51
2016-03-21T10:07:04.557Z,1012.48
2016-03-21T10:08:04.622Z,1012.45
2016-03-21T10:09:04.671Z,1012.46
2016-03-21T10:10:04.722Z,1012.49
2016-03-21T10:11:04.771Z,1012.49
2016-03-21T10:12:04.821Z,1012.48
2016-03-21T10:13:04.870Z,1012.54
2016-03-21T10:14:04.919Z,1012.56
2016-03-21T10:15:04.968Z,1012.56
2016-03-21T10:16:05.034Z,1012.49
2016-03-21T10:17:05.068Z,1012.49
2016-03-21T10:18:05.134Z,1012.44
2016-03-21T10:19:05.182Z,1012.5
2016-03-21T10:20:05.232Z,1012.47
2016-03-21T10:21:05.282Z,1012.5
2016-03-21T10:22:05.316Z,1012.44
2016-03-21T10:23:05.381Z,1012.44
2016-03-21T10:24:05.431Z,1012.46
2016-03-21T10:25:05.481Z,1012.44
2016-03-21T10:26:05.531Z,1012.46
2016-03-21T10:27:05.579Z,1012.45
2016-03-21T10:28:05.629Z,1012.44
2016-03-21T10:29:05.678Z,1012.43
2016-03-21T10:30:05.744Z,1012.41
2016-03-21T10:31:05.777Z,1012.4
2016-03-21T10:32:05.842Z,1012.41
2016-03-21T10:33:05.877Z,1012.38
2016-03-21T10:34:05.926Z,1012.34
2016-03-21T10:35:05.992Z,1012.35
2016-03-21T10:36:06.041Z,1012.38
2016-03-21T10:37:06.075Z,1012.38
2016-03-21T10:38:06.141Z,1012.41
2016-03-21T10:39:06.190Z,1012.38
2016-03-21T10:40:06.239Z,1012.4
2016-03-21T10:41:06.289Z,1012.38
2016-03-21T10:42:06.339Z,1012.33
2016-03-21T10:43:06.388Z,1012.26
2016-03-21T10:44:06.437Z,1012.23
2016-03-21T10:45:06.487Z,1012.18
2016-03-21T10:46:06.537Z,1012.22
2016-03-21T10:47:06.587Z,1012.22
2016-03-21T10:48:06.636Z,1012.2
2016-03-21T10:49:06.701Z,1012.19
2016-03-21T10:50:06.751Z,1012.23
2016-03-21T10:51:06.784Z,1012.18
2016-03-21T10:52:06.851Z,1012.2
2016-03-21T10:53:06.899Z,1012.19
2016-03-21T10:54:06.948Z,1012.19
2016-03-21T10:55:06.998Z,1012.2
2016-03-21T10:56:07.048Z,1012.19
2016-03-21T10:57:07.097Z,1012.16
2016-03-21T10:58:07.148Z,1012.12
2016-03-21T10:59:07.197Z,1012.15
2016-03-21T11:00:07.247Z,1012.1
2016-03-21T11:01:07.311Z,1012.08
2016-03-21T11:02:07.345Z,1012.04
2016-03-21T11:03:07.411Z,1012.01
2016-03-21T11:04:07.460Z,1012.01
2016-03-21T11:05:07.494Z,1011.98
2016-03-21T11:06:07.559Z,1011.97
2016-03-21T11:07:07.600Z,1011.96
2016-03-21T11:08:07.666Z,1011.95
2016-03-21T11:09:07.700Z,1011.94
2016-03-21T11:10:07.766Z,1011.9
2016-03-21T11:11:07.816Z,1011.89
2016-03-21T11:12:07.865Z,1011.88
2016-03-21T11:13:07.914Z,1011.89
2016-03-21T11:14:07.964Z,1011.86
2016-03-21T11:15:08.013Z,1011.8
2016-03-21T11:16:08.063Z,1011.86
2016-03-21T11:17:08.113Z,1011.86
2016-03-21T11:18:08.162Z,1011.83
2016-03-21T11:19:08.211Z,1011.84
2016-03-21T11:20:08.261Z,1011.82
2016-03-21T11:21:08.310Z,1011.76
2016-03-21T11:22:08.360Z,1011.85
2016-03-21T11:23:08.426Z,1011.81
2016-03-21T11:24:08.459Z,1011.8
2016-03-21T11:25:08.524Z,1011.82
2016-03-21T11:26:08.574Z,1011.79
2016-03-21T11:27:08.624Z,1011.78
2016-03-21T11:28:08.673Z,1011.77
2016-03-21T11:29:08.722Z,1011.77
2016-03-21T11:30:08.773Z,1011.76
2016-03-21T11:31:08.820Z,1011.79
2016-03-21T11:32:08.885Z,1011.72
2016-03-21T11:33:08.920Z,1011.73
2016-03-21T11:34:09.027Z,1011.79
2016-03-21T11:35:11.932Z,1011.77
2016-03-21T11:36:09.073Z,1011.77
2016-03-21T11:37:09.124Z,1011.76
2016-03-21T11:38:09.173Z,1011.72
2016-03-21T11:39:09.223Z,1011.75
2016-03-21T11:40:09.272Z,1011.72
2016-03-21T11:41:09.321Z,1011.74
2016-03-21T11:42:09.370Z,1011.75
2016-03-21T11:43:09.421Z,1011.77
2016-03-21T11:44:09.470Z,1011.72
2016-03-21T11:45:09.520Z,1011.75
2016-03-21T11:46:09.569Z,1011.73
2016-03-21T11:47:09.634Z,1011.77
2016-03-21T11:48:09.669Z,1011.71
2016-03-21T11:49:09.733Z,1011.71
2016-03-21T11:50:09.783Z,1011.66
2016-03-21T11:51:09.817Z,1011.69
2016-03-21T11:52:09.866Z,1011.71
2016-03-21T11:53:09.932Z,1011.73
2016-03-21T11:54:09.981Z,1011.65
2016-03-21T11:55:10.030Z,1011.65
2016-03-21T11:56:10.080Z,1011.68
2016-03-21T11:57:10.130Z,1011.61
2016-03-21T11:58:10.180Z,1011.61
2016-03-21T11:59:10.244Z,1011.63
2016-03-21T12:00:10.279Z,1011.56
2016-03-21T12:01:10.344Z,1011.57
2016-03-21T12:02:10.393Z,1011.56
2016-03-21T12:03:10.444Z,1011.58
2016-03-21T12:04:10.493Z,1011.58
2016-03-21T12:05:10.542Z,1011.61
2016-03-21T12:06:10.592Z,1011.62
2016-03-21T12:07:10.645Z,1011.6
2016-03-21T12:08:10.694Z,1011.59
2016-03-21T12:09:10.747Z,1011.6